Date,TemperatureHighF,TemperatureAvgF,TemperatureLowF,DewpointHighF,DewpointAvgF,DewpointLowF,HumidityHigh,HumidityAvg,HumidityLow,PressureMaxIn,PressureMinIn,WindSpeedMaxMPH,WindSpeedAvgMPH,GustSpeedMaxMPH,PrecipitationSumIn
2013-3-1,55.9,53.0,50.4,50.0,49.6,49.0,96,88,80,30.31,30.22,14,3,25,0.02
2013-3-2,55.0,48.1,37.2,49.0,44.1,36.0,95,86,74,30.22,30.02,12,2,27,0.54
2013-3-3,47.4,39.3,31.9,38.0,34.6,30.0,98,84,53,30.26,30.15,10,2,17,0.01
2013-3-4,52.4,40.4,29.8,34.0,29.6,26.0,95,69,41,30.26,29.89,9,1,11,0.01
2013-3-5,51.5,44.2,39.4,40.0,32.7,26.0,89,65,45,29.88,29.68,6,1,11,0.00
2013-3-6,42.1,40.7,39.4,41.0,38.7,38.0,96,93,88,29.85,29.53,5,1,9,0.47
2013-3-7,50.3,42.7,37.9,46.0,40.3,37.0,97,91,71,30.04,29.85,7,1,9,0.26
2013-3-8,50.5,40.3,31.3,41.0,36.4,30.0,97,87,68,30.20,30.03,7,1,10,0.01
2013-3-9,52.7,40.8,29.2,41.0,35.2,28.0,97,82,56,30.44,30.20,9,1,14,0.00
2013-3-10,47.0,41.7,35.5,42.0,38.2,33.0,94,88,72,30.45,30.37,3,0,9,0.01
2013-3-11,51.5,45.2,39.9,45.0,41.5,39.0,96,87,65,30.40,30.11,6,1,7,0.04
2013-3-12,54.5,51.4,46.1,50.0,47.9,44.0,95,88,75,30.11,30.01,19,5,27,0.02
2013-3-13,51.8,50.8,49.6,51.0,48.7,47.0,96,92,87,30.15,30.04,18,2,23,0.24
2013-3-14,51.8,49.5,46.8,49.0,47.0,45.0,96,91,78,30.09,29.98,9,1,17,0.04
2013-3-15,57.2,51.3,47.0,50.0,47.6,45.0,96,87,74,30.16,30.08,8,3,19,0.00
2013-3-16,48.5,45.0,36.2,45.0,41.3,34.0,94,87,71,30.08,29.83,12,4,24,0.04
2013-3-17,47.3,39.8,36.4,39.0,35.4,34.0,95,84,62,30.15,29.93,11,2,18,0.14
2013-3-18,49.5,42.5,38.1,41.0,36.2,33.0,94,79,60,30.20,30.05,12,4,22,0.02
2013-3-19,57.1,42.7,33.8,40.0,34.8,29.0,94,77,35,30.19,29.55,10,1,17,0.23
2013-3-20,49.8,45.0,33.3,48.0,41.0,32.0,96,86,70,29.95,29.34,26,6,35,0.57
2013-3-21,44.9,37.9,34.3,38.0,34.6,33.0,95,88,69,30.17,29.96,8,2,14,0.24
2013-3-22,43.6,36.9,31.8,35.0,31.5,25.0,96,82,53,30.33,30.17,8,2,15,0.16
2013-3-23,49.8,39.4,30.3,31.0,28.5,25.0,94,68,38,30.35,30.26,8,1,10,0.00
2013-3-24,56.3,41.9,30.1,34.0,29.1,26.0,92,65,33,30.25,30.08,7,1,11,0.00
2013-3-25,62.1,48.6,34.6,34.0,30.8,28.0,78,53,33,30.09,29.89,6,1,11,0.00
2013-3-26,59.4,49.8,43.1,41.0,37.9,35.0,77,64,44,29.97,29.91,6,1,10,0.00
2013-3-27,57.4,48.7,42.9,47.0,41.6,37.0,92,77,56,29.94,29.88,5,0,7,0.00
2013-3-28,62.5,50.9,42.5,49.0,44.7,41.0,96,81,55,30.10,29.94,9,1,12,0.03
2013-3-29,62.5,51.9,42.2,47.0,44.1,40.0,94,77,52,30.20,30.10,9,1,12,0.00
2013-3-30,65.6,53.6,40.1,47.0,43.7,39.0,95,71,45,30.21,30.03,10,2,13,0.00
2013-3-31,71.1,55.2,42.8,48.0,43.6,40.0,91,68,39,30.03,29.86,7,2,11,0.00